Time;durP1;ratioP1;P1;durP2;ratioP2;P2;SDS_P1;SDS_P2;PMS_P1;PMS_P2;Temp;Humidity;BMP_temperature;BMP_pressure;BME280_temperature;BME280_humidity;BME280_pressure;Samples;Min_cycle;Max_cycle;Signal;HPM_P1;HPM_P2
2022/11/02 00:00:54;;;;;;;4.07;3.00;;;10.60;99.90;;;;;;7364947;19;20313;-76
2022/11/02 00:03:20;;;;;;;3.30;3.00;;;10.60;99.90;;;;;;7362257;19;20336;-76
2022/11/02 00:05:46;;;;;;;3.78;2.95;;;10.60;99.90;;;;;;7362886;19;20951;-76
2022/11/02 00:08:11;;;;;;;3.20;2.90;;;10.60;99.90;;;;;;7363079;19;20999;-76
2022/11/02 00:10:37;;;;;;;2.80;2.60;;;10.50;99.90;;;;;;7363516;19;20317;-76
2022/11/02 00:13:02;;;;;;;3.47;2.92;;;10.50;99.90;;;;;;7363616;19;20329;-76
2022/11/02 00:15:29;;;;;;;5.00;3.00;;;10.50;99.90;;;;;;7364316;19;20332;-76
2022/11/02 00:17:57;;;;;;;3.40;2.65;;;10.50;99.90;;;;;;7362404;19;21334;-76
2022/11/02 00:20:25;;;;;;;3.00;2.70;;;10.50;99.90;;;;;;7364247;19;21290;-76
2022/11/02 00:22:51;;;;;;;3.47;3.17;;;10.50;99.90;;;;;;7363299;19;20395;-77
2022/11/02 00:25:17;;;;;;;3.78;2.60;;;10.40;99.90;;;;;;7362303;19;20332;-76
2022/11/02 00:27:42;;;;;;;2.80;2.60;;;10.40;99.90;;;;;;7363605;19;21319;-76
2022/11/02 00:30:09;;;;;;;3.07;2.77;;;10.40;99.90;;;;;;7361895;19;20323;-76
2022/11/02 00:32:34;;;;;;;3.30;2.60;;;10.40;99.90;;;;;;7362451;19;20324;-76
2022/11/02 00:35:01;;;;;;;3.13;2.58;;;10.30;99.90;;;;;;7361899;19;20357;-77
2022/11/02 00:37:26;;;;;;;3.20;2.90;;;10.30;99.90;;;;;;7360573;19;20380;-76
2022/11/02 00:39:52;;;;;;;2.55;2.30;;;10.30;99.90;;;;;;7364076;19;20355;-77
2022/11/02 00:42:18;;;;;;;4.78;3.00;;;10.30;99.90;;;;;;7368982;19;20327;-77
2022/11/02 00:44:43;;;;;;;2.77;2.57;;;10.20;99.90;;;;;;7368856;19;20320;-77
2022/11/02 00:47:10;;;;;;;2.97;2.58;;;10.20;99.90;;;;;;7368463;19;20391;-77
2022/11/02 00:49:36;;;;;;;3.40;2.30;;;10.20;99.90;;;;;;7367614;19;20384;-77
2022/11/02 00:52:02;;;;;;;3.90;2.53;;;10.20;99.90;;;;;;7368245;19;20324;-77
2022/11/02 00:54:28;;;;;;;4.55;2.65;;;10.10;99.90;;;;;;7367859;19;20308;-76
2022/11/02 00:56:54;;;;;;;3.60;2.50;;;10.10;99.90;;;;;;7367934;19;20685;-76
2022/11/02 00:59:19;;;;;;;2.70;2.50;;;10.00;99.90;;;;;;7367457;19;20337;-77
2022/11/02 01:01:46;;;;;;;4.72;2.70;;;10.00;99.90;;;;;;7361992;19;20356;-77
2022/11/02 01:04:18;;;;;;;2.90;2.50;;;10.00;99.90;;;;;;7367755;19;20316;-77
2022/11/02 01:06:43;;;;;;;3.72;2.65;;;10.00;99.90;;;;;;7367145;19;20345;-77
2022/11/02 01:09:10;;;;;;;4.40;2.20;;;9.90;99.90;;;;;;7366376;19;21159;-77
2022/11/02 01:11:35;;;;;;;2.50;2.15;;;9.90;99.90;;;;;;7367465;19;20360;-77
2022/11/02 01:14:01;;;;;;;2.60;2.40;;;9.90;99.90;;;;;;7368501;19;20317;-77
2022/11/02 01:16:26;;;;;;;2.90;2.30;;;9.90;99.90;;;;;;7367056;19;21144;-77
2022/11/02 01:18:52;;;;;;;2.17;2.00;;;9.90;99.90;;;;;;7368721;19;20350;-77
2022/11/02 01:21:19;;;;;;;2.97;2.20;;;9.90;99.90;;;;;;7369458;19;20309;-77
2022/11/02 01:23:44;;;;;;;2.50;1.90;;;9.80;99.90;;;;;;7366660;19;20416;-77
2022/11/02 01:26:10;;;;;;;2.25;2.05;;;9.80;99.90;;;;;;7367575;19;20324;-77
2022/11/02 01:28:36;;;;;;;2.40;2.20;;;9.80;99.90;;;;;;7366566;19;20305;-77
2022/11/02 01:31:01;;;;;;;2.38;2.00;;;9.70;99.90;;;;;;7367187;19;21295;-76
2022/11/02 01:33:27;;;;;;;2.27;2.07;;;9.70;99.90;;;;;;7367553;19;20959;-76
2022/11/02 01:35:53;;;;;;;2.40;2.05;;;9.70;99.90;;;;;;7366073;19;20727;-77
2022/11/02 01:38:19;;;;;;;2.72;2.00;;;9.60;99.90;;;;;;7365959;19;20328;-76
2022/11/02 01:40:44;;;;;;;2.10;1.90;;;9.60;99.90;;;;;;7366261;19;20316;-76
2022/11/02 01:43:24;;;;;;;2.90;2.50;;;9.60;99.90;;;;;;7367320;19;20300;-76
2022/11/02 01:45:54;;;;;;;2.38;2.17;;;9.50;99.90;;;;;;7265041;19;2016146;-77
2022/11/02 01:48:23;;;;;;;2.10;1.90;;;9.50;99.90;;;;;;7370234;19;20432;-77
2022/11/02 01:50:49;;;;;;;2.28;2.08;;;9.50;99.90;;;;;;7372368;19;20353;-76
2022/11/02 01:53:14;;;;;;;2.10;1.90;;;9.40;99.90;;;;;;7368696;19;20653;-77
2022/11/02 01:55:40;;;;;;;2.45;2.03;;;9.30;99.90;;;;;;7368066;19;20313;-77
2022/11/02 01:58:08;;;;;;;1.80;1.70;;;9.30;99.90;;;;;;7367112;19;20354;-76
2022/11/02 02:00:34;;;;;;;2.08;1.75;;;9.30;99.90;;;;;;7361013;19;20397;-77
2022/11/02 02:03:00;;;;;;;1.70;1.60;;;9.30;99.90;;;;;;7366005;19;20331;-76
2022/11/02 02:05:26;;;;;;;1.85;1.70;;;9.30;99.90;;;;;;7367281;19;20363;-76
2022/11/02 02:07:53;;;;;;;1.60;1.48;;;9.30;99.90;;;;;;7366643;19;20316;-76
2022/11/02 02:10:19;;;;;;;1.75;1.65;;;9.30;99.90;;;;;;7365630;19;20321;-77
2022/11/02 02:12:44;;;;;;;1.85;1.70;;;9.30;99.90;;;;;;7366072;19;20332;-77
2022/11/02 02:15:13;;;;;;;1.48;1.38;;;9.30;99.90;;;;;;7366063;19;20828;-77
2022/11/02 02:17:42;;;;;;;2.60;1.60;;;9.30;99.90;;;;;;7364761;19;20975;-79
2022/11/02 02:20:23;;;;;;;2.42;1.85;;;9.30;99.90;;;;;;7365417;19;20316;-77
2022/11/02 02:23:07;;;;;;;2.22;1.60;;;9.30;99.90;;;;;;7262924;19;2004377;-77
2022/11/02 02:25:57;;;;;;;1.90;1.53;;;9.30;99.90;;;;;;7366311;19;20340;-76
2022/11/02 02:28:42;;;;;;;2.30;1.70;;;9.20;99.90;;;;;;7257238;19;2008340;-76
2022/11/02 02:31:31;;;;;;;3.70;1.92;;;9.20;99.90;;;;;;7364290;19;20308;-75
2022/11/02 02:34:17;;;;;;;1.90;1.70;;;9.20;99.90;;;;;;7263774;19;2004292;-75
2022/11/02 02:37:13;;;;;;;1.92;1.60;;;9.10;99.90;;;;;;7363452;19;21212;-76
2022/11/02 02:39:55;;;;;;;2.30;1.80;;;9.10;99.90;;;;;;7262565;19;2004499;-76
2022/11/02 02:42:29;;;;;;;2.97;1.95;;;9.10;99.90;;;;;;7262262;19;2004566;-76
2022/11/02 02:45:23;;;;;;;2.20;2.00;;;9.10;99.90;;;;;;7365331;19;20328;-76
2022/11/02 02:47:58;;;;;;;2.60;1.80;;;9.10;99.90;;;;;;7261562;19;2020109;-76
2022/11/02 02:50:29;;;;;;;2.00;1.80;;;9.20;99.90;;;;;;7364804;19;20616;-76
2022/11/02 02:52:54;;;;;;;2.40;1.73;;;9.20;99.90;;;;;;7365658;19;20882;-76
2022/11/02 02:55:23;;;;;;;3.00;2.00;;;9.20;99.90;;;;;;7364613;19;20333;-76
2022/11/02 02:57:49;;;;;;;3.20;1.83;;;9.20;99.90;;;;;;7364320;19;20316;-77
2022/11/02 03:00:16;;;;;;;1.95;1.73;;;9.20;99.90;;;;;;7364403;19;20320;-76
2022/11/02 03:02:42;;;;;;;2.85;1.70;;;9.30;99.90;;;;;;7363183;19;20332;-76
2022/11/02 03:05:22;;;;;;;2.17;1.98;;;9.20;99.90;;;;;;7364998;19;21242;-76
2022/11/02 03:07:47;;;;;;;1.80;1.50;;;9.20;99.90;;;;;;7262580;19;2004723;-76
2022/11/02 03:10:20;;;;;;;1.93;1.60;;;9.20;99.90;;;;;;7364940;19;20372;-76
2022/11/02 03:13:00;;;;;;;1.98;1.77;;;9.20;99.90;;;;;;7262630;19;2004346;-76
2022/11/02 03:15:29;;;;;;;1.73;1.55;;;9.20;99.90;;;;;;7364165;19;21183;-76
2022/11/02 03:18:14;;;;;;;1.63;1.50;;;9.10;99.90;;;;;;7365409;19;20378;-76
2022/11/02 03:20:51;;;;;;;1.80;1.60;;;9.10;99.90;;;;;;7364545;19;21152;-76
2022/11/02 03:23:34;;;;;;;1.88;1.75;;;9.00;99.90;;;;;;7261776;19;2004260;-76
2022/11/02 03:26:12;;;;;;;1.73;1.63;;;9.10;99.90;;;;;;7364379;19;20886;-77
2022/11/02 03:28:55;;;;;;;1.70;1.60;;;9.00;99.90;;;;;;7363464;19;20305;-76
2022/11/02 03:31:27;;;;;;;1.60;1.50;;;9.00;99.90;;;;;;7261615;19;2004611;-76
2022/11/02 03:34:03;;;;;;;1.48;1.38;;;9.00;99.90;;;;;;7363775;19;20336;-77
2022/11/02 03:36:35;;;;;;;1.60;1.50;;;9.00;99.90;;;;;;7364392;19;20309;-76
2022/11/02 03:39:06;;;;;;;1.55;1.45;;;9.00;99.90;;;;;;7364458;19;20328;-76
2022/11/02 03:41:33;;;;;;;1.40;1.30;;;8.90;99.90;;;;;;7363476;19;20341;-76
2022/11/02 03:44:07;;;;;;;1.60;1.50;;;8.90;99.90;;;;;;7364162;19;20333;-76
2022/11/02 03:46:32;;;;;;;2.85;1.60;;;8.90;99.90;;;;;;7363764;19;20336;-77
2022/11/02 03:48:58;;;;;;;2.10;1.90;;;8.80;99.90;;;;;;7363986;19;20331;-76
2022/11/02 03:51:23;;;;;;;1.70;1.60;;;8.80;99.90;;;;;;7363121;19;20828;-76
2022/11/02 03:53:55;;;;;;;2.07;1.70;;;8.80;99.90;;;;;;7362869;19;20308;-76
2022/11/02 03:56:25;;;;;;;1.60;1.50;;;8.70;99.90;;;;;;7362269;19;20407;-76
2022/11/02 03:58:51;;;;;;;2.60;1.50;;;8.70;99.90;;;;;;7362759;19;20300;-76
2022/11/02 04:01:18;;;;;;;1.50;1.40;;;8.70;99.90;;;;;;7362314;19;20805;-76
2022/11/02 04:03:44;;;;;;;1.70;1.60;;;8.70;99.90;;;;;;7369246;19;20331;-76
2022/11/02 04:06:11;;;;;;;1.67;1.58;;;8.60;99.90;;;;;;7369600;19;20336;-76
2022/11/02 04:08:42;;;;;;;2.65;1.67;;;8.60;99.90;;;;;;7364570;19;20671;-77
2022/11/02 04:16:43;;;;;;;1.92;1.80;;;8.50;99.90;;;;;;7369352;19;21192;-76
2022/11/02 04:19:26;;;;;;;2.80;2.00;;;8.50;99.90;;;;;;7370276;19;20328;-76
2022/11/02 04:27:29;;;;;;;3.13;1.80;;;8.40;99.90;;;;;;7266168;19;2004572;-76
2022/11/02 04:29:56;;;;;;;3.78;2.17;;;8.50;99.90;;;;;;7368614;19;20324;-76
2022/11/02 04:35:17;;;;;;;3.03;1.90;;;8.50;99.90;;;;;;7264405;19;2004624;-76
2022/11/02 04:40:33;;;;;;;2.60;1.98;;;8.60;99.90;;;;;;7266518;19;2004961;-76
2022/11/02 04:43:00;;;;;;;2.23;1.90;;;8.50;99.90;;;;;;7369817;19;20316;-76
2022/11/02 04:45:26;;;;;;;2.20;1.98;;;8.60;99.90;;;;;;7367368;19;20312;-76
2022/11/02 04:47:52;;;;;;;2.42;2.05;;;8.60;99.90;;;;;;7366152;19;20333;-76
2022/11/02 04:50:18;;;;;;;2.30;1.80;;;8.70;99.90;;;;;;7367268;19;20387;-76
2022/11/02 04:52:44;;;;;;;3.28;1.95;;;8.70;99.90;;;;;;7369381;19;20948;-76
2022/11/02 04:55:09;;;;;;;2.00;1.90;;;8.70;99.90;;;;;;7369739;19;20297;-76
2022/11/02 04:57:35;;;;;;;2.88;2.28;;;8.70;99.90;;;;;;7368618;19;20396;-75
2022/11/02 05:00:01;;;;;;;2.00;1.80;;;8.70;99.90;;;;;;7370227;19;20342;-76
2022/11/02 05:02:28;;;;;;;3.35;2.10;;;8.70;99.90;;;;;;7369236;19;20341;-76
2022/11/02 05:04:54;;;;;;;3.10;2.05;;;8.70;99.90;;;;;;7369302;19;20329;-75
2022/11/02 05:07:21;;;;;;;2.08;1.77;;;8.70;99.90;;;;;;7368778;19;21204;-75
2022/11/02 05:09:46;;;;;;;2.60;2.10;;;8.70;99.90;;;;;;7367368;19;20338;-76
2022/11/02 05:12:13;;;;;;;2.25;1.80;;;8.70;99.90;;;;;;7368510;19;20313;-75
2022/11/02 05:14:39;;;;;;;3.47;2.00;;;8.70;99.90;;;;;;7368747;19;20335;-75
2022/11/02 05:17:05;;;;;;;2.40;1.77;;;8.70;99.90;;;;;;7366302;19;20331;-76
2022/11/02 05:19:32;;;;;;;4.70;3.33;;;8.80;99.90;;;;;;7368318;19;20333;-76
2022/11/02 05:21:59;;;;;;;2.92;2.00;;;8.70;99.90;;;;;;7367964;19;20339;-76
2022/11/02 05:24:26;;;;;;;2.22;1.85;;;8.70;99.90;;;;;;7367924;19;20329;-77
2022/11/02 05:26:52;;;;;;;3.17;1.80;;;8.70;99.90;;;;;;7366049;19;20327;-76
2022/11/02 05:29:17;;;;;;;2.35;1.80;;;8.70;99.90;;;;;;7367097;19;20329;-76
2022/11/02 05:31:43;;;;;;;2.40;1.50;;;8.60;99.90;;;;;;7368008;19;20328;-76
2022/11/02 05:34:08;;;;;;;2.05;1.63;;;8.70;99.90;;;;;;7367165;19;20380;-75
2022/11/02 05:36:34;;;;;;;1.50;1.40;;;8.60;99.90;;;;;;7366760;19;20333;-76
2022/11/02 05:39:00;;;;;;;1.60;1.50;;;8.60;99.90;;;;;;7367408;19;21303;-76
2022/11/02 05:41:26;;;;;;;2.70;1.45;;;8.60;99.90;;;;;;7366402;19;20911;-76
2022/11/02 05:43:54;;;;;;;2.67;1.63;;;8.60;99.90;;;;;;7366397;19;20317;-77
2022/11/02 05:46:21;;;;;;;2.10;1.50;;;8.60;99.90;;;;;;7367528;19;20332;-77
2022/11/02 05:48:47;;;;;;;2.73;1.60;;;8.50;99.90;;;;;;7366712;19;20324;-76
2022/11/02 05:51:12;;;;;;;1.80;1.70;;;8.50;99.90;;;;;;7367005;19;21046;-77
2022/11/02 05:53:38;;;;;;;1.77;1.60;;;8.40;99.90;;;;;;7366198;19;20323;-77
2022/11/02 05:56:05;;;;;;;2.87;1.60;;;8.40;99.90;;;;;;7366246;19;20363;-76
2022/11/02 05:58:30;;;;;;;1.60;1.50;;;8.40;99.90;;;;;;7367038;19;20341;-77
2022/11/02 06:01:00;;;;;;;2.13;1.60;;;8.40;99.90;;;;;;7367465;19;20353;-76
2022/11/02 06:03:25;;;;;;;1.80;1.70;;;8.40;99.90;;;;;;7362880;19;20851;-77
2022/11/02 06:06:02;;;;;;;2.67;1.60;;;8.40;99.90;;;;;;7362564;19;20337;-76
2022/11/02 06:08:29;;;;;;;1.95;1.63;;;8.40;99.90;;;;;;7362383;19;20308;-77
2022/11/02 06:10:55;;;;;;;1.95;1.67;;;8.40;99.90;;;;;;7363317;19;20420;-76
2022/11/02 06:13:20;;;;;;;2.23;1.93;;;8.40;99.90;;;;;;7361469;19;20334;-77
2022/11/02 06:15:46;;;;;;;2.20;1.60;;;8.30;99.90;;;;;;7362429;19;20348;-76
2022/11/02 06:18:12;;;;;;;2.80;1.80;;;8.30;99.90;;;;;;7367385;19;20340;-76
2022/11/02 06:20:37;;;;;;;2.28;1.42;;;8.30;99.90;;;;;;7371678;19;20329;-76
2022/11/02 06:23:03;;;;;;;2.00;1.77;;;8.30;99.90;;;;;;7370797;19;20304;-77
2022/11/02 06:25:29;;;;;;;1.60;1.50;;;8.30;99.90;;;;;;7366502;19;20350;-77
2022/11/02 06:27:55;;;;;;;2.40;1.90;;;8.30;99.90;;;;;;7365386;19;20331;-76
2022/11/02 06:30:23;;;;;;;3.00;1.60;;;8.30;99.90;;;;;;7364768;19;21070;-76
2022/11/02 06:32:50;;;;;;;2.60;2.00;;;8.30;99.90;;;;;;7364177;19;20313;-76
2022/11/02 06:35:16;;;;;;;2.40;2.00;;;8.30;99.90;;;;;;7363044;19;21191;-77
2022/11/02 06:37:43;;;;;;;2.25;1.80;;;8.30;99.90;;;;;;7363145;19;20320;-76
2022/11/02 06:40:09;;;;;;;3.65;1.90;;;8.30;99.90;;;;;;7365369;19;20316;-77
2022/11/02 06:42:35;;;;;;;3.50;2.15;;;8.30;99.90;;;;;;7365486;19;20365;-76
2022/11/02 06:45:01;;;;;;;2.55;2.30;;;8.40;99.90;;;;;;7363222;19;20783;-76
2022/11/02 06:47:31;;;;;;;2.57;2.20;;;8.30;99.90;;;;;;7364613;19;20321;-76
2022/11/02 06:49:57;;;;;;;3.58;2.08;;;8.30;99.90;;;;;;7364261;19;21273;-76
2022/11/02 06:52:22;;;;;;;2.70;2.10;;;8.40;99.90;;;;;;7365663;19;20321;-77
2022/11/02 06:54:48;;;;;;;4.97;3.37;;;8.40;99.90;;;;;;7362953;19;20330;-77
2022/11/02 06:57:13;;;;;;;5.88;4.00;;;8.40;99.90;;;;;;7363651;19;20322;-76
2022/11/02 06:59:39;;;;;;;3.07;2.20;;;8.50;99.90;;;;;;7364481;19;20883;-77
2022/11/02 07:02:04;;;;;;;5.67;2.20;;;8.50;99.90;;;;;;7364501;19;20324;-77
2022/11/02 07:04:30;;;;;;;3.15;2.00;;;8.60;99.90;;;;;;7365051;19;20344;-77
2022/11/02 07:06:56;;;;;;;2.00;1.80;;;8.60;99.90;;;;;;7365115;19;20344;-77
2022/11/02 07:09:21;;;;;;;3.30;1.80;;;8.70;99.90;;;;;;7363709;19;20323;-77
2022/11/02 07:11:47;;;;;;;3.60;2.00;;;8.80;99.90;;;;;;7364159;19;20316;-78
2022/11/02 07:14:12;;;;;;;2.00;1.80;;;8.80;99.90;;;;;;7364019;19;20317;-78
2022/11/02 07:16:38;;;;;;;1.88;1.65;;;8.80;99.90;;;;;;7366555;19;20662;-77
2022/11/02 07:19:03;;;;;;;4.10;1.90;;;8.90;99.90;;;;;;7364129;19;20844;-77
2022/11/02 07:21:29;;;;;;;1.75;1.50;;;8.90;99.90;;;;;;7363445;19;20332;-77
2022/11/02 07:23:55;;;;;;;2.20;1.73;;;9.00;99.90;;;;;;7364116;19;20333;-77
2022/11/02 07:26:20;;;;;;;2.83;1.48;;;9.10;99.90;;;;;;7362792;19;21288;-76
2022/11/02 07:28:46;;;;;;;2.93;1.67;;;9.20;99.90;;;;;;7363299;19;20425;-77
2022/11/02 07:31:11;;;;;;;1.85;1.40;;;9.30;99.90;;;;;;7362666;19;20305;-76
2022/11/02 07:33:37;;;;;;;1.70;1.50;;;9.30;99.90;;;;;;7364476;19;20329;-76
2022/11/02 07:36:04;;;;;;;2.93;1.80;;;9.40;99.90;;;;;;7362314;19;20316;-76
2022/11/02 07:38:29;;;;;;;2.17;1.90;;;9.50;99.90;;;;;;7363874;19;20746;-77
2022/11/02 07:40:55;;;;;;;4.47;2.40;;;9.50;99.90;;;;;;7362277;19;20300;-76
2022/11/02 07:43:20;;;;;;;4.97;2.80;;;9.70;99.90;;;;;;7362672;19;20970;-77
2022/11/02 07:45:57;;;;;;;2.87;2.57;;;9.70;99.90;;;;;;7362624;19;20356;-77
2022/11/02 07:48:23;;;;;;;10.70;7.05;;;9.80;99.90;;;;;;7363293;19;20638;-77
2022/11/02 07:50:48;;;;;;;8.43;4.17;;;9.90;99.90;;;;;;7368661;19;20380;-77
2022/11/02 07:53:14;;;;;;;5.20;3.05;;;9.90;99.90;;;;;;7370267;19;20365;-77
2022/11/02 07:55:39;;;;;;;6.43;3.53;;;10.00;99.90;;;;;;7370256;19;20374;-76
2022/11/02 07:58:09;;;;;;;9.23;4.30;;;10.20;99.90;;;;;;7368155;19;20336;-78
2022/11/02 08:00:36;;;;;;;6.43;3.15;;;10.30;99.90;;;;;;7367017;19;20352;-76
2022/11/02 08:03:02;;;;;;;4.60;2.85;;;10.40;99.90;;;;;;7364461;19;20331;-77
2022/11/02 08:05:28;;;;;;;3.90;2.30;;;10.40;99.90;;;;;;7368877;19;20304;-76
2022/11/02 08:07:57;;;;;;;3.28;2.20;;;10.50;99.90;;;;;;7368667;19;20324;-76
2022/11/02 08:10:23;;;;;;;2.95;1.83;;;10.60;99.90;;;;;;7367564;19;20408;-76
2022/11/02 08:12:48;;;;;;;2.60;2.03;;;10.70;99.90;;;;;;7368135;19;20823;-77
2022/11/02 08:15:14;;;;;;;3.80;1.90;;;10.80;99.90;;;;;;7370472;19;20317;-76
2022/11/02 08:17:40;;;;;;;2.70;2.00;;;10.80;99.90;;;;;;7369405;19;20315;-77
2022/11/02 08:20:06;;;;;;;2.75;1.85;;;10.90;99.90;;;;;;7370162;19;20349;-77
2022/11/02 08:22:38;;;;;;;3.47;2.22;;;11.00;99.90;;;;;;7369966;19;20378;-77
2022/11/02 08:25:05;;;;;;;3.65;2.00;;;11.10;99.90;;;;;;7368780;19;20324;-77
2022/11/02 08:27:30;;;;;;;2.88;1.77;;;11.10;99.90;;;;;;7368231;19;20332;-77
2022/11/02 08:29:56;;;;;;;5.03;2.13;;;11.20;99.90;;;;;;7369561;19;20320;-77
2022/11/02 08:32:21;;;;;;;2.83;1.97;;;11.30;99.90;;;;;;7369178;19;21317;-76
2022/11/02 08:34:47;;;;;;;2.87;1.70;;;11.40;99.90;;;;;;7372961;19;20308;-76
2022/11/02 08:37:13;;;;;;;3.60;1.70;;;11.50;99.90;;;;;;7370315;19;20345;-77
2022/11/02 08:39:38;;;;;;;2.73;1.43;;;11.50;99.90;;;;;;7379502;19;20327;-77
2022/11/02 08:42:29;;;;;;;3.60;1.70;;;11.60;99.90;;;;;;7369363;19;20355;-77
2022/11/02 08:44:54;;;;;;;2.53;1.80;;;11.70;99.90;;;;;;7266529;19;2020172;-76
2022/11/02 08:47:20;;;;;;;3.80;1.57;;;11.80;99.90;;;;;;7369096;19;20328;-77
2022/11/02 08:49:46;;;;;;;2.50;1.50;;;11.90;99.90;;;;;;7368628;19;20304;-77
2022/11/02 08:52:11;;;;;;;3.07;1.40;;;12.00;99.90;;;;;;7368274;19;20328;-77
2022/11/02 08:54:37;;;;;;;5.80;1.55;;;12.10;99.90;;;;;;7367818;19;20340;-76
2022/11/02 08:57:02;;;;;;;2.10;1.70;;;12.20;99.90;;;;;;7368126;19;20340;-77
2022/11/02 08:59:28;;;;;;;3.53;1.50;;;12.20;99.90;;;;;;7368539;19;20400;-78
2022/11/02 09:01:53;;;;;;;2.33;1.58;;;12.30;99.90;;;;;;7366768;19;21308;-76
2022/11/02 09:04:19;;;;;;;2.43;1.43;;;12.40;99.90;;;;;;7371309;19;20323;-77
2022/11/02 09:06:45;;;;;;;2.27;1.40;;;12.40;99.90;;;;;;7367977;19;20312;-78
2022/11/02 09:09:10;;;;;;;1.45;1.35;;;12.50;99.90;;;;;;7368374;19;20939;-76
2022/11/02 09:11:36;;;;;;;2.83;1.60;;;12.60;99.90;;;;;;7370274;19;20345;-76
2022/11/02 09:14:01;;;;;;;4.80;1.50;;;12.70;99.90;;;;;;7369459;19;20354;-77
2022/11/02 09:16:27;;;;;;;3.20;1.50;;;12.80;99.90;;;;;;7367329;19;20332;-75
2022/11/02 09:18:53;;;;;;;3.03;1.40;;;12.80;99.90;;;;;;7370612;19;20348;-77
2022/11/02 09:21:18;;;;;;;2.13;1.40;;;13.00;99.90;;;;;;7371780;19;20325;-77
2022/11/02 09:23:47;;;;;;;3.67;1.57;;;13.10;99.90;;;;;;7371018;19;21332;-77
2022/11/02 09:26:13;;;;;;;2.03;1.40;;;13.40;99.90;;;;;;7371467;19;20839;-78
2022/11/02 09:28:38;;;;;;;3.47;1.60;;;13.50;99.90;;;;;;7370370;19;20337;-77
2022/11/02 09:31:04;;;;;;;2.53;1.43;;;13.50;99.90;;;;;;7370263;19;21204;-77
2022/11/02 09:33:31;;;;;;;2.38;1.60;;;13.50;99.90;;;;;;7370898;19;20341;-77
2022/11/02 09:36:00;;;;;;;3.70;1.70;;;13.60;99.90;;;;;;7368393;19;20324;-77
2022/11/02 09:38:26;;;;;;;2.17;1.40;;;13.70;99.90;;;;;;7366588;19;20867;-77
2022/11/02 09:40:57;;;;;;;3.97;1.50;;;13.70;99.90;;;;;;7372229;19;20335;-77
2022/11/02 09:43:53;;;;;;;1.95;1.60;;;13.90;99.90;;;;;;7267949;19;2017921;-79
2022/11/02 09:46:32;;;;;;;3.13;1.57;;;14.00;99.90;;;;;;7371276;19;20347;-78
2022/11/02 09:49:00;;;;;;;3.38;1.80;;;14.10;99.90;;;;;;7267410;19;2019853;-78
2022/11/02 09:51:30;;;;;;;1.88;1.23;;;14.10;99.90;;;;;;7369055;19;20949;-78
2022/11/02 09:54:25;;;;;;;2.20;1.50;;;14.30;99.90;;;;;;7369830;19;20317;-78
2022/11/02 09:56:51;;;;;;;3.20;1.60;;;14.40;99.90;;;;;;7370708;19;20316;-78
2022/11/02 09:59:20;;;;;;;3.43;1.70;;;14.40;99.90;;;;;;7370288;19;20320;-78
2022/11/02 10:02:04;;;;;;;2.58;1.90;;;14.30;99.90;;;;;;7370359;19;20761;-78
2022/11/02 10:04:49;;;;;;;3.50;1.87;;;14.20;99.90;;;;;;7268080;19;2004337;-79
2022/11/02 10:07:43;;;;;;;2.80;1.52;;;14.20;99.90;;;;;;7373226;19;20696;-78
2022/11/02 10:10:15;;;;;;;5.65;1.60;;;14.20;99.90;;;;;;7266851;19;2005606;-77
2022/11/02 10:12:57;;;;;;;3.03;1.50;;;14.20;99.90;;;;;;7371054;19;20324;-77
2022/11/02 10:15:27;;;;;;;3.15;1.80;;;14.30;99.90;;;;;;7266034;19;2018648;-77
2022/11/02 10:17:55;;;;;;;3.05;1.40;;;14.30;99.90;;;;;;7370827;19;20320;-77
2022/11/02 10:20:25;;;;;;;3.57;1.40;;;14.40;99.90;;;;;;7371983;19;20331;-77
2022/11/02 10:22:51;;;;;;;2.30;1.40;;;14.40;99.90;;;;;;7371250;19;20847;-77
2022/11/02 10:25:17;;;;;;;2.53;1.60;;;14.50;99.90;;;;;;7369312;19;20309;-77
2022/11/02 10:27:43;;;;;;;2.55;1.45;;;14.60;99.90;;;;;;7368917;19;20304;-78
2022/11/02 10:30:19;;;;;;;2.78;1.60;;;14.60;99.90;;;;;;7374399;19;20397;-78
2022/11/02 10:32:45;;;;;;;4.00;1.73;;;14.60;99.90;;;;;;7376424;19;20319;-77
2022/11/02 10:35:19;;;;;;;3.87;1.70;;;14.60;99.90;;;;;;7370785;19;20344;-77
2022/11/02 10:37:48;;;;;;;2.63;1.52;;;14.70;99.90;;;;;;7370854;19;20336;-77
2022/11/02 10:40:25;;;;;;;5.10;1.67;;;14.60;99.90;;;;;;7368322;19;21143;-78
2022/11/02 10:42:56;;;;;;;3.15;1.35;;;14.60;99.90;;;;;;7367233;19;20976;-78
2022/11/02 10:45:39;;;;;;;3.47;1.70;;;14.70;99.90;;;;;;7366820;19;20321;-78
2022/11/02 10:48:22;;;;;;;2.80;1.90;;;14.90;99.90;;;;;;7265411;19;2004520;-78
2022/11/02 10:51:05;;;;;;;3.20;1.40;;;14.90;99.90;;;;;;7367416;19;20304;-77
2022/11/02 10:53:41;;;;;;;6.65;1.80;;;14.90;99.90;;;;;;7264874;19;2004315;-78
2022/11/02 10:56:22;;;;;;;5.72;1.90;;;14.60;99.90;;;;;;7367000;19;20316;-78
2022/11/02 10:59:14;;;;;;;3.22;1.90;;;14.60;99.90;;;;;;7365872;19;20380;-78
2022/11/02 11:05:14;;;;;;;2.72;1.48;;;14.60;99.90;;;;;;7307213;19;20375;-78
2022/11/02 11:07:42;;;;;;;2.65;1.70;;;14.80;99.90;;;;;;7364613;19;20432;-78
2022/11/02 11:10:13;;;;;;;2.75;1.70;;;15.00;99.90;;;;;;7364059;19;20333;-78
2022/11/02 11:12:41;;;;;;;3.75;1.83;;;14.80;99.90;;;;;;7367348;19;20772;-78
2022/11/02 11:15:39;;;;;;;4.80;1.90;;;14.80;99.90;;;;;;7364269;19;20436;-79
2022/11/02 11:18:12;;;;;;;3.30;1.60;;;14.80;99.90;;;;;;7262512;19;2020208;-78
2022/11/02 11:20:38;;;;;;;3.53;1.60;;;15.10;99.90;;;;;;7365957;19;20462;-78
2022/11/02 11:23:18;;;;;;;4.85;1.40;;;15.10;99.90;;;;;;7366306;19;20344;-78
2022/11/02 11:25:55;;;;;;;2.03;1.40;;;15.40;99.90;;;;;;7367016;19;20329;-78
2022/11/02 11:28:39;;;;;;;3.63;1.50;;;15.60;99.90;;;;;;7366455;19;20312;-78
2022/11/02 11:31:09;;;;;;;3.05;1.52;;;15.70;99.90;;;;;;7264067;19;2004425;-78
2022/11/02 11:33:54;;;;;;;1.77;1.50;;;15.50;99.90;;;;;;7366546;19;20341;-78
2022/11/02 11:36:25;;;;;;;2.20;1.52;;;15.60;99.90;;;;;;7367301;19;20316;-78
2022/11/02 11:38:51;;;;;;;4.85;1.60;;;15.80;99.90;;;;;;7366491;19;20920;-78
2022/11/02 11:41:17;;;;;;;2.03;1.50;;;15.80;99.90;;;;;;7367127;19;20317;-78
2022/11/02 11:43:42;;;;;;;4.38;1.85;;;15.90;99.90;;;;;;7368360;19;21202;-78
2022/11/02 11:46:08;;;;;;;3.27;1.67;;;15.90;99.90;;;;;;7366496;19;20330;-78
2022/11/02 11:48:35;;;;;;;3.40;1.60;;;15.80;99.90;;;;;;7367038;19;20340;-78
2022/11/02 11:51:01;;;;;;;3.17;1.38;;;15.70;99.90;;;;;;7369109;19;20323;-79
2022/11/02 11:53:27;;;;;;;3.22;1.50;;;15.90;99.90;;;;;;7367102;19;20376;-78
2022/11/02 11:55:59;;;;;;;5.03;1.50;;;16.00;99.90;;;;;;7365372;19;20309;-78
2022/11/02 11:58:28;;;;;;;3.28;1.63;;;15.90;99.90;;;;;;7364672;19;20955;-79
2022/11/02 12:01:01;;;;;;;3.03;1.63;;;16.00;99.90;;;;;;7366156;19;20349;-79
2022/11/02 12:03:26;;;;;;;2.20;1.37;;;16.00;99.90;;;;;;7366662;19;20309;-78
2022/11/02 12:06:05;;;;;;;5.75;1.70;;;16.10;99.90;;;;;;7367257;19;20337;-78
2022/11/02 12:08:57;;;;;;;3.58;1.30;;;16.20;99.90;;;;;;7364523;19;20354;-78
2022/11/02 12:11:35;;;;;;;3.47;1.70;;;16.00;99.90;;;;;;7264189;19;2004662;-78
2022/11/02 12:14:40;;;;;;;5.05;1.83;;;15.80;99.90;;;;;;7364867;19;20363;-78
2022/11/02 12:17:34;;;;;;;4.35;1.80;;;15.60;99.90;;;;;;7160494;19;2018825;-78
2022/11/02 12:20:27;;;;;;;3.90;1.93;;;15.30;99.90;;;;;;7365433;19;21204;-78
2022/11/02 12:23:15;;;;;;;2.77;1.70;;;15.10;99.90;;;;;;7263143;19;2009171;-78
2022/11/02 12:26:18;;;;;;;2.67;1.45;;;15.20;99.90;;;;;;7261154;19;2020030;-77
2022/11/02 12:28:57;;;;;;;4.53;1.90;;;15.20;99.90;;;;;;7264404;19;2004307;-78
2022/11/02 12:31:33;;;;;;;2.33;1.60;;;15.20;99.90;;;;;;7364988;19;20305;-78
2022/11/02 12:34:12;;;;;;;9.77;2.80;;;15.20;99.90;;;;;;7369506;19;20333;-78
2022/11/02 12:36:46;;;;;;;6.70;2.05;;;15.40;99.90;;;;;;7272675;19;2004327;-78
2022/11/02 12:40:06;;;;;;;9.45;2.83;;;15.40;99.90;;;;;;7375089;19;20323;-78
2022/11/02 12:42:34;;;;;;;2.75;1.50;;;15.30;99.90;;;;;;7169562;19;2004309;-78
2022/11/02 12:45:05;;;;;;;4.65;1.92;;;15.20;99.90;;;;;;7370419;19;20735;-78
2022/11/02 12:47:44;;;;;;;5.22;1.67;;;15.20;99.90;;;;;;7374463;19;20411;-77
2022/11/02 12:50:30;;;;;;;2.92;1.67;;;15.40;99.90;;;;;;7268742;19;2019752;-78
2022/11/02 12:53:05;;;;;;;2.97;1.60;;;15.50;99.90;;;;;;7372156;19;20313;-78
2022/11/02 12:55:33;;;;;;;5.78;1.60;;;15.50;99.90;;;;;;7371008;19;20852;-78
2022/11/02 12:58:03;;;;;;;4.22;1.60;;;15.50;99.90;;;;;;7369745;19;20581;-78
2022/11/02 13:00:28;;;;;;;2.75;1.70;;;15.40;99.90;;;;;;7371676;19;20344;-77
2022/11/02 13:03:11;;;;;;;1.80;1.33;;;15.30;99.90;;;;;;7370833;19;20384;-78
2022/11/02 13:05:38;;;;;;;4.05;1.75;;;15.10;99.90;;;;;;7269231;19;2004320;-78
2022/11/02 13:08:17;;;;;;;3.22;1.60;;;15.20;99.90;;;;;;7369203;19;20316;-78
2022/11/02 13:10:47;;;;;;;2.25;1.58;;;15.00;99.90;;;;;;7369129;19;20348;-77
2022/11/02 13:13:16;;;;;;;3.13;1.58;;;14.90;99.90;;;;;;7371264;19;20316;-78
2022/11/02 13:15:43;;;;;;;3.17;1.65;;;14.70;99.90;;;;;;7369898;19;20361;-78
2022/11/02 13:18:16;;;;;;;2.92;1.90;;;14.80;99.90;;;;;;7369936;19;20341;-78
2022/11/02 13:20:47;;;;;;;3.58;1.60;;;14.80;99.90;;;;;;7370507;19;20344;-77
2022/11/02 13:23:27;;;;;;;2.55;1.48;;;14.70;99.90;;;;;;7372667;19;20344;-78
2022/11/02 13:26:03;;;;;;;1.37;1.27;;;14.80;99.90;;;;;;7371575;19;20389;-78